Time,TemperatureF,DewpointF,PressureIn,WindDirection,WindDirectionDegrees,WindSpeedMPH,WindSpeedGustMPH,Humidity,HourlyPrecipIn,Conditions,Clouds,dailyrainin,SolarRadiationWatts/m^2,SoftwareType,DateUTC
2013-02-13 00:01:00,37.0,25.0,-100.00,WSW,243,1.0,10.0,62,0.00,,,0.00,1.000000,,2013-02-13 07:01:00,
2013-02-13 00:32:00,37.0,25.0,-100.00,WSW,243,1.0,10.0,62,0.00,,,0.00,1.000000,,2013-02-13 07:32:00,
2013-02-13 00:42:00,37.0,25.0,-100.00,WSW,243,1.0,10.0,62,0.00,,,0.00,1.000000,,2013-02-13 07:42:00,
2013-02-13 00:52:00,37.0,25.0,-100.00,WSW,243,1.0,10.0,62,0.00,,,0.00,1.000000,,2013-02-13 07:52:00,
2013-02-13 01:01:00,38.0,28.0,-100.00,West,264,3.0,10.0,68,0.00,,,0.00,1.000000,,2013-02-13 08:01:00,
2013-02-13 01:32:00,38.0,28.0,-100.00,West,264,3.0,10.0,68,0.00,,,0.00,1.000000,,2013-02-13 08:32:00,
2013-02-13 01:43:00,38.0,28.0,-100.00,West,264,3.0,10.0,68,0.00,,,0.00,1.000000,,2013-02-13 08:43:00,
2013-02-13 01:52:00,38.0,28.0,-100.00,West,264,3.0,10.0,68,0.00,,,0.00,1.000000,,2013-02-13 08:52:00,
2013-02-13 02:01:00,37.0,27.0,-100.00,WSW,252,2.0,8.0,68,0.00,,,0.00,1.000000,,2013-02-13 09:01:00,
2013-02-13 02:21:00,37.0,27.0,-100.00,WSW,252,2.0,8.0,68,0.00,,,0.00,1.000000,,2013-02-13 09:21:00,
2013-02-13 02:32:00,37.0,27.0,-100.00,WSW,252,2.0,8.0,68,0.00,,,0.00,1.000000,,2013-02-13 09:32:00,
2013-02-13 02:42:00,37.0,27.0,-100.00,WSW,252,2.0,8.0,68,0.00,,,0.00,1.000000,,2013-02-13 09:42:00,
2013-02-13 02:52:00,37.0,27.0,-100.00,WSW,252,2.0,8.0,68,0.00,,,0.00,1.000000,,2013-02-13 09:52:00,
2013-02-13 03:01:00,39.0,29.0,-100.00,SSW,192,3.0,10.0,68,0.00,,,0.00,1.000000,,2013-02-13 10:01:00,
2013-02-13 03:32:00,39.0,29.0,-100.00,SSW,192,3.0,10.0,68,0.00,,,0.00,1.000000,,2013-02-13 10:32:00,
2013-02-13 03:42:00,39.0,29.0,-100.00,SSW,192,3.0,10.0,68,0.00,,,0.00,1.000000,,2013-02-13 10:42:00,
2013-02-13 03:52:00,39.0,29.0,-100.00,SSW,192,3.0,10.0,68,0.00,,,0.00,1.000000,,2013-02-13 10:52:00,
2013-02-13 04:01:00,39.0,29.0,-100.00,South,188,2.0,10.0,68,0.00,,,0.00,1.000000,,2013-02-13 11:01:00,
2013-02-13 04:32:00,39.0,29.0,-100.00,South,188,2.0,10.0,68,0.00,,,0.00,1.000000,,2013-02-13 11:32:00,
2013-02-13 04:42:00,39.0,29.0,-100.00,South,188,2.0,10.0,68,0.00,,,0.00,1.000000,,2013-02-13 11:42:00,
2013-02-13 04:52:00,39.0,29.0,-100.00,South,188,2.0,10.0,68,0.00,,,0.00,1.000000,,2013-02-13 11:52:00,
2013-02-13 05:01:00,38.0,29.0,-100.00,WNW,295,2.0,10.0,69,0.00,,,0.00,1.000000,,2013-02-13 12:01:00,
2013-02-13 05:32:00,38.0,29.0,-100.00,WNW,295,2.0,10.0,69,0.00,,,0.00,1.000000,,2013-02-13 12:32:00,
2013-02-13 05:42:00,38.0,29.0,-100.00,WNW,295,2.0,10.0,69,0.00,,,0.00,1.000000,,2013-02-13 12:42:00,
2013-02-13 05:52:00,38.0,29.0,-100.00,WNW,295,2.0,10.0,69,0.00,,,0.00,1.000000,,2013-02-13 12:52:00,
2013-02-13 06:01:00,38.0,31.0,-100.00,SSE,161,4.0,10.0,75,0.00,,,0.00,1.000000,,2013-02-13 13:01:00,
2013-02-13 06:32:00,38.0,31.0,-100.00,SSE,161,4.0,10.0,75,0.00,,,0.00,1.000000,,2013-02-13 13:32:00,
2013-02-13 06:42:00,38.0,31.0,-100.00,SSE,161,4.0,10.0,75,0.00,,,0.00,1.000000,,2013-02-13 13:42:00,
2013-02-13 06:52:00,38.0,31.0,-100.00,SSE,161,4.0,10.0,75,0.00,,,0.00,1.000000,,2013-02-13 13:52:00,
2013-02-13 07:01:00,36.0,30.0,-100.00,WNW,300,1.0,12.0,78,0.00,,,-99.99,1.000000,,2013-02-13 14:01:00,
2013-02-13 07:22:00,36.0,30.0,-100.00,WNW,300,1.0,12.0,78,0.00,,,-99.99,1.000000,,2013-02-13 14:22:00,
2013-02-13 07:32:00,36.0,30.0,-100.00,WNW,300,1.0,12.0,78,0.00,,,-99.99,1.000000,,2013-02-13 14:32:00,
2013-02-13 07:42:00,36.0,30.0,-100.00,WNW,300,1.0,12.0,78,0.00,,,-99.99,1.000000,,2013-02-13 14:42:00,
2013-02-13 07:52:00,36.0,30.0,-100.00,WNW,300,1.0,12.0,78,0.00,,,-99.99,1.000000,,2013-02-13 14:52:00,
2013-02-13 08:01:00,36.0,32.0,-100.00,South,171,2.0,5.0,85,0.00,,,0.00,2.000000,,2013-02-13 15:01:00,
2013-02-13 08:32:00,36.0,32.0,-100.00,South,171,2.0,5.0,85,0.00,,,0.00,2.000000,,2013-02-13 15:32:00,
2013-02-13 08:42:00,36.0,32.0,-100.00,South,171,2.0,5.0,85,0.00,,,0.00,2.000000,,2013-02-13 15:42:00,
2013-02-13 08:52:00,36.0,32.0,-100.00,South,171,2.0,5.0,85,0.00,,,0.00,2.000000,,2013-02-13 15:52:00,
2013-02-13 09:01:00,37.0,34.0,-100.00,SW,219,2.0,4.0,90,0.01,,,0.01,23.000000,,2013-02-13 16:01:00,
2013-02-13 09:32:00,37.0,34.0,-100.00,SW,219,2.0,4.0,90,0.01,,,0.01,23.000000,,2013-02-13 16:32:00,
2013-02-13 09:42:00,37.0,34.0,-100.00,SW,219,2.0,4.0,90,0.01,,,0.01,23.000000,,2013-02-13 16:42:00,
2013-02-13 09:52:00,37.0,34.0,-100.00,SW,219,2.0,4.0,90,0.01,,,0.01,23.000000,,2013-02-13 16:52:00,
2013-02-13 10:01:00,40.0,34.0,-100.00,NW,305,3.0,5.0,80,0.00,,,0.01,67.000000,,2013-02-13 17:01:00,
2013-02-13 10:32:00,40.0,34.0,-100.00,NW,305,3.0,5.0,80,0.00,,,0.01,67.000000,,2013-02-13 17:32:00,
2013-02-13 10:42:00,40.0,34.0,-100.00,NW,305,3.0,5.0,80,0.00,,,0.01,67.000000,,2013-02-13 17:42:00,
2013-02-13 10:52:00,40.0,34.0,-100.00,NW,305,3.0,5.0,80,0.00,,,0.01,67.000000,,2013-02-13 17:52:00,
2013-02-13 11:01:00,39.0,31.0,-100.00,NNW,342,2.0,5.0,74,0.00,,,0.01,74.000000,,2013-02-13 18:01:00,
2013-02-13 11:32:00,39.0,31.0,-100.00,NNW,342,2.0,5.0,74,0.00,,,0.01,74.000000,,2013-02-13 18:32:00,
2013-02-13 11:42:00,39.0,31.0,-100.00,NNW,342,2.0,5.0,74,0.00,,,0.01,74.000000,,2013-02-13 18:42:00,
2013-02-13 11:52:00,39.0,31.0,-100.00,NNW,342,2.0,5.0,74,0.00,,,0.01,74.000000,,2013-02-13 18:52:00,
2013-02-13 12:01:00,42.0,34.0,-100.00,NNE,16,3.0,5.0,73,0.00,,,0.01,191.000000,,2013-02-13 19:01:00,
2013-02-13 12:32:00,42.0,34.0,-100.00,NNE,16,3.0,5.0,73,0.00,,,0.01,191.000000,,2013-02-13 19:32:00,
2013-02-13 12:42:00,42.0,34.0,-100.00,NNE,16,3.0,5.0,73,0.00,,,0.01,191.000000,,2013-02-13 19:42:00,
2013-02-13 12:52:00,42.0,34.0,-100.00,NNE,16,3.0,5.0,73,0.00,,,0.01,191.000000,,2013-02-13 19:52:00,
2013-02-13 13:01:00,39.0,30.0,-100.00,North,9,3.0,7.0,71,0.00,,,-99.99,226.000000,,2013-02-13 20:01:00,
2013-02-13 13:22:00,39.0,30.0,-100.00,North,9,3.0,7.0,71,0.00,,,-99.99,226.000000,,2013-02-13 20:22:00,
2013-02-13 13:32:00,39.0,30.0,-100.00,North,9,3.0,7.0,71,0.00,,,-99.99,226.000000,,2013-02-13 20:32:00,
2013-02-13 13:42:00,39.0,30.0,-100.00,North,9,3.0,7.0,71,0.00,,,-99.99,226.000000,,2013-02-13 20:42:00,
2013-02-13 13:52:00,39.0,30.0,-100.00,North,9,3.0,7.0,71,0.00,,,-99.99,226.000000,,2013-02-13 20:52:00,
2013-02-13 14:01:00,41.0,32.0,-100.00,North,10,3.0,7.0,71,0.00,,,0.01,268.000000,,2013-02-13 21:01:00,
2013-02-13 14:32:00,41.0,32.0,-100.00,North,10,3.0,7.0,71,0.00,,,0.01,268.000000,,2013-02-13 21:32:00,
2013-02-13 14:42:00,41.0,32.0,-100.00,North,10,3.0,7.0,71,0.00,,,0.01,268.000000,,2013-02-13 21:42:00,
2013-02-13 14:52:00,41.0,32.0,-100.00,North,10,3.0,7.0,71,0.00,,,0.01,268.000000,,2013-02-13 21:52:00,
2013-02-13 15:01:00,43.0,35.0,-100.00,NE,36,4.0,8.0,72,0.00,,,0.01,233.000000,,2013-02-13 22:01:00,
2013-02-13 15:32:00,43.0,35.0,-100.00,NE,36,4.0,8.0,72,0.00,,,0.01,233.000000,,2013-02-13 22:32:00,
2013-02-13 15:42:00,43.0,35.0,-100.00,NE,36,4.0,8.0,72,0.00,,,0.01,233.000000,,2013-02-13 22:42:00,
2013-02-13 15:52:00,43.0,35.0,-100.00,NE,36,4.0,8.0,72,0.00,,,0.01,233.000000,,2013-02-13 22:52:00,
2013-02-13 16:01:00,42.0,25.0,-100.00,ENE,75,4.0,11.0,50,0.00,,,0.01,135.000000,,2013-02-13 23:01:00,
2013-02-13 16:32:00,42.0,25.0,-100.00,ENE,75,4.0,11.0,50,0.00,,,0.01,135.000000,,2013-02-13 23:32:00,
2013-02-13 16:42:00,42.0,25.0,-100.00,ENE,75,4.0,11.0,50,0.00,,,0.01,135.000000,,2013-02-13 23:42:00,
2013-02-13 16:52:00,42.0,25.0,-100.00,ENE,75,4.0,11.0,50,0.00,,,0.01,135.000000,,2013-02-13 23:52:00,
2013-02-13 17:01:00,40.0,26.0,-100.00,NNE,29,2.0,11.0,57,0.00,,,0.01,55.000000,,2013-02-14 00:01:00,
2013-02-13 17:32:00,40.0,26.0,-100.00,NNE,29,2.0,11.0,57,0.00,,,0.01,55.000000,,2013-02-14 00:32:00,
2013-02-13 17:42:00,40.0,26.0,-100.00,NNE,29,2.0,11.0,57,0.00,,,0.01,55.000000,,2013-02-14 00:42:00,
2013-02-13 17:52:00,40.0,26.0,-100.00,NNE,29,2.0,11.0,57,0.00,,,0.01,55.000000,,2013-02-14 00:52:00,
2013-02-13 18:01:00,37.0,27.0,-100.00,NW,310,1.0,6.0,67,0.00,,,0.01,14.000000,,2013-02-14 01:01:00,
2013-02-13 18:32:00,37.0,27.0,-100.00,NW,310,1.0,6.0,67,0.00,,,0.01,14.000000,,2013-02-14 01:32:00,
2013-02-13 18:42:00,37.0,27.0,-100.00,NW,310,1.0,6.0,67,0.00,,,0.01,14.000000,,2013-02-14 01:42:00,
2013-02-13 18:51:00,37.0,27.0,-100.00,NW,310,1.0,6.0,67,0.00,,,0.01,14.000000,,2013-02-14 01:51:00,
2013-02-13 19:01:00,35.0,28.0,-100.00,North,11,3.0,6.0,75,0.00,,,0.01,1.000000,,2013-02-14 02:01:00,
2013-02-13 19:21:00,35.0,28.0,-100.00,North,11,3.0,6.0,75,0.00,,,0.01,1.000000,,2013-02-14 02:21:00,
2013-02-13 19:32:00,35.0,28.0,-100.00,North,11,3.0,6.0,75,0.00,,,0.01,1.000000,,2013-02-14 02:32:00,
2013-02-13 19:42:00,35.0,28.0,-100.00,North,11,3.0,6.0,75,0.00,,,0.01,1.000000,,2013-02-14 02:42:00,
2013-02-13 19:51:00,35.0,28.0,-100.00,North,11,3.0,6.0,75,0.00,,,0.01,1.000000,,2013-02-14 02:51:00,
2013-02-13 20:01:00,34.0,30.0,-100.00,WSW,249,1.0,5.0,84,0.00,,,0.01,1.000000,,2013-02-14 03:01:00,
2013-02-13 20:22:00,34.0,30.0,-100.00,WSW,249,1.0,5.0,84,0.00,,,0.01,1.000000,,2013-02-14 03:22:00,
2013-02-13 20:32:00,34.0,30.0,-100.00,WSW,249,1.0,5.0,84,0.00,,,0.01,1.000000,,2013-02-14 03:32:00,
2013-02-13 20:42:00,34.0,30.0,-100.00,WSW,249,1.0,5.0,84,0.00,,,0.01,1.000000,,2013-02-14 03:42:00,
2013-02-13 20:52:00,34.0,30.0,-100.00,WSW,249,1.0,5.0,84,0.00,,,0.01,1.000000,,2013-02-14 03:52:00,
2013-02-13 21:01:00,34.0,27.0,-100.00,NNE,19,2.0,7.0,76,0.00,,,0.01,1.000000,,2013-02-14 04:01:00,
2013-02-13 21:32:00,34.0,27.0,-100.00,NNE,19,2.0,7.0,76,0.00,,,0.01,1.000000,,2013-02-14 04:32:00,
2013-02-13 21:42:00,34.0,27.0,-100.00,NNE,19,2.0,7.0,76,0.00,,,0.01,1.000000,,2013-02-14 04:42:00,
2013-02-13 21:51:00,34.0,27.0,-100.00,NNE,19,2.0,7.0,76,0.00,,,0.01,1.000000,,2013-02-14 04:51:00,
2013-02-13 22:01:00,33.0,30.0,-100.00,North,10,3.0,6.0,90,0.00,,,0.01,1.000000,,2013-02-14 05:01:00,
2013-02-13 22:22:00,33.0,30.0,-100.00,North,10,3.0,6.0,90,0.00,,,0.01,1.000000,,2013-02-14 05:22:00,
2013-02-13 22:32:00,33.0,30.0,-100.00,North,10,3.0,6.0,90,0.00,,,0.01,1.000000,,2013-02-14 05:32:00,
2013-02-13 22:42:00,33.0,30.0,-100.00,North,10,3.0,6.0,90,0.00,,,0.01,1.000000,,2013-02-14 05:42:00,
2013-02-13 22:52:00,33.0,30.0,-100.00,North,10,3.0,6.0,90,0.00,,,0.01,1.000000,,2013-02-14 05:52:00,
2013-02-13 23:01:00,35.0,27.0,-100.00,SSW,201,2.0,10.0,71,0.00,,,0.01,1.000000,,2013-02-14 06:01:00,
2013-02-13 23:22:00,35.0,27.0,-100.00,SSW,201,2.0,10.0,71,0.00,,,0.01,1.000000,,2013-02-14 06:22:00,
2013-02-13 23:32:00,35.0,27.0,-100.00,SSW,201,2.0,10.0,71,0.00,,,0.01,1.000000,,2013-02-14 06:32:00,
2013-02-13 23:42:00,35.0,27.0,-100.00,SSW,201,2.0,10.0,71,0.00,,,0.01,1.000000,,2013-02-14 06:42:00,
2013-02-13 23:52:00,35.0,27.0,-100.00,SSW,201,2.0,10.0,71,0.00,,,0.01,1.000000,,2013-02-14 06:52:00,